sensor_id;sensor_type;location;lat;lon;timestamp;pressure;altitude;pressure_sealevel;temperature;humidity
39773;BME280;25451;51.960;6.250;2023-05-01T00:01:16;101679.28;;;12.64;56.53
39773;BME280;25451;51.960;6.250;2023-05-01T00:03:41;101679.28;;;12.64;56.17
39773;BME280;25451;51.960;6.250;2023-05-01T00:06:07;101670.56;;;12.61;56.13
39773;BME280;25451;51.960;6.250;2023-05-01T00:08:33;101671.06;;;12.58;56.71
39773;BME280;25451;51.960;6.250;2023-05-01T00:11:05;101660.44;;;12.55;56.52
39773;BME280;25451;51.960;6.250;2023-05-01T00:13:33;101642.72;;;12.44;56.72
39773;BME280;25451;51.960;6.250;2023-05-01T00:15:59;101658.16;;;12.52;56.66
39773;BME280;25451;51.960;6.250;2023-05-01T00:18:24;101647.81;;;12.47;56.42
39773;BME280;25451;51.960;6.250;2023-05-01T00:20:49;101648.16;;;12.50;56.45
39773;BME280;25451;51.960;6.250;2023-05-01T00:23:15;101649.00;;;12.51;56.89
39773;BME280;25451;51.960;6.250;2023-05-01T00:25:40;101648.41;;;12.49;56.66
39773;BME280;25451;51.960;6.250;2023-05-01T00:28:06;101643.97;;;12.48;56.49
39773;BME280;25451;51.960;6.250;2023-05-01T00:30:32;101635.06;;;12.46;56.90
39773;BME280;25451;51.960;6.250;2023-05-01T00:32:58;101631.66;;;12.44;56.67
39773;BME280;25451;51.960;6.250;2023-05-01T00:35:24;101637.44;;;12.42;56.86
39773;BME280;25451;51.960;6.250;2023-05-01T00:37:49;101624.09;;;12.39;56.82
39773;BME280;25451;51.960;6.250;2023-05-01T00:40:15;101619.84;;;12.37;57.10
39773;BME280;25451;51.960;6.250;2023-05-01T00:42:40;101614.31;;;12.37;56.80
39773;BME280;25451;51.960;6.250;2023-05-01T00:45:06;101612.84;;;12.34;56.73
39773;BME280;25451;51.960;6.250;2023-05-01T00:47:34;101608.16;;;12.35;57.15
39773;BME280;25451;51.960;6.250;2023-05-01T00:50:00;101608.41;;;12.33;57.13
39773;BME280;25451;51.960;6.250;2023-05-01T00:52:25;101603.94;;;12.32;56.97
39773;BME280;25451;51.960;6.250;2023-05-01T00:54:50;101594.78;;;12.32;57.24
39773;BME280;25451;51.960;6.250;2023-05-01T00:57:19;101600.31;;;12.32;57.09
39773;BME280;25451;51.960;6.250;2023-05-01T00:59:45;101579.63;;;12.23;57.25
39773;BME280;25451;51.960;6.250;2023-05-01T01:02:10;101592.28;;;12.30;57.05
39773;BME280;25451;51.960;6.250;2023-05-01T01:04:37;101586.72;;;12.30;57.09
39773;BME280;25451;51.960;6.250;2023-05-01T01:12:51;101567.09;;;12.20;57.06
39773;BME280;25451;51.960;6.250;2023-05-01T01:15:34;101568.56;;;12.23;57.01
39773;BME280;25451;51.960;6.250;2023-05-01T01:18:18;101569.63;;;12.22;57.10
39773;BME280;25451;51.960;6.250;2023-05-01T01:31:40;101557.81;;;12.15;57.61
39773;BME280;25451;51.960;6.250;2023-05-01T01:37:04;101555.50;;;12.12;57.59
39773;BME280;25451;51.960;6.250;2023-05-01T01:39:45;101560.44;;;12.10;57.59
39773;BME280;25451;51.960;6.250;2023-05-01T01:42:21;101554.31;;;12.08;57.61
39773;BME280;25451;51.960;6.250;2023-05-01T01:44:55;101544.34;;;12.07;57.51
39773;BME280;25451;51.960;6.250;2023-05-01T01:47:25;101546.50;;;12.05;57.28
39773;BME280;25451;51.960;6.250;2023-05-01T01:49:53;101530.22;;;11.97;57.38
39773;BME280;25451;51.960;6.250;2023-05-01T01:52:20;101520.84;;;11.98;57.83
39773;BME280;25451;51.960;6.250;2023-05-01T01:54:50;101521.31;;;11.95;57.67
39773;BME280;25451;51.960;6.250;2023-05-01T01:57:18;101532.06;;;12.03;57.97
39773;BME280;25451;51.960;6.250;2023-05-01T01:59:45;101512.03;;;11.89;57.91
39773;BME280;25451;51.960;6.250;2023-05-01T02:02:13;101518.06;;;11.98;57.69
39773;BME280;25451;51.960;6.250;2023-05-01T02:04:41;101521.09;;;11.96;57.88
39773;BME280;25451;51.960;6.250;2023-05-01T02:07:07;101507.00;;;11.86;58.06
39773;BME280;25451;51.960;6.250;2023-05-01T02:09:34;101507.84;;;11.87;57.86
39773;BME280;25451;51.960;6.250;2023-05-01T02:12:01;101507.44;;;11.83;58.24
39773;BME280;25451;51.960;6.250;2023-05-01T02:14:30;101511.56;;;11.81;58.25
39773;BME280;25451;51.960;6.250;2023-05-01T02:16:56;101503.25;;;11.81;58.03
39773;BME280;25451;51.960;6.250;2023-05-01T02:19:23;101504.56;;;11.78;58.11
39773;BME280;25451;51.960;6.250;2023-05-01T02:21:50;101499.03;;;11.78;58.47
39773;BME280;25451;51.960;6.250;2023-05-01T02:24:16;101502.66;;;11.79;58.24
39773;BME280;25451;51.960;6.250;2023-05-01T02:26:53;101498.19;;;11.78;58.39
39773;BME280;25451;51.960;6.250;2023-05-01T02:29:20;101499.28;;;11.77;58.40
39773;BME280;25451;51.960;6.250;2023-05-01T02:31:46;101488.91;;;11.72;58.42
39773;BME280;25451;51.960;6.250;2023-05-01T02:34:11;101499.28;;;11.77;58.37
39773;BME280;25451;51.960;6.250;2023-05-01T02:36:36;101481.69;;;11.71;58.27
39773;BME280;25451;51.960;6.250;2023-05-01T02:39:02;101485.91;;;11.74;58.49
39773;BME280;25451;51.960;6.250;2023-05-01T02:41:28;101478.31;;;11.69;58.25
39773;BME280;25451;51.960;6.250;2023-05-01T02:43:59;101470.63;;;11.71;58.36
39773;BME280;25451;51.960;6.250;2023-05-01T02:46:26;101481.91;;;11.70;58.21
39773;BME280;25451;51.960;6.250;2023-05-01T02:48:56;101457.78;;;11.58;58.68
39773;BME280;25451;51.960;6.250;2023-05-01T02:51:23;101467.72;;;11.66;58.46
39773;BME280;25451;51.960;6.250;2023-05-01T02:53:48;101470.25;;;11.68;58.41
39773;BME280;25451;51.960;6.250;2023-05-01T02:56:14;101454.75;;;11.67;58.63
39773;BME280;25451;51.960;6.250;2023-05-01T02:58:40;101460.72;;;11.63;58.46
39773;BME280;25451;51.960;6.250;2023-05-01T03:01:06;101454.34;;;11.63;58.96
39773;BME280;25451;51.960;6.250;2023-05-01T03:03:31;101453.72;;;11.61;58.67
39773;BME280;25451;51.960;6.250;2023-05-01T03:05:56;101457.59;;;11.60;58.62
39773;BME280;25451;51.960;6.250;2023-05-01T03:08:22;101455.03;;;11.58;58.71
39773;BME280;25451;51.960;6.250;2023-05-01T03:10:47;101442.75;;;11.54;58.55
39773;BME280;25451;51.960;6.250;2023-05-01T03:13:13;101423.13;;;11.44;58.64
39773;BME280;25451;51.960;6.250;2023-05-01T03:15:38;101448.91;;;11.56;58.59
39773;BME280;25451;51.960;6.250;2023-05-01T03:18:03;101433.03;;;11.52;58.61
39773;BME280;25451;51.960;6.250;2023-05-01T03:20:29;101444.47;;;11.55;58.61
39773;BME280;25451;51.960;6.250;2023-05-01T03:22:56;101432.31;;;11.56;58.81
39773;BME280;25451;51.960;6.250;2023-05-01T03:25:21;101427.28;;;11.53;58.57
39773;BME280;25451;51.960;6.250;2023-05-01T03:27:46;101426.66;;;11.51;58.81
39773;BME280;25451;51.960;6.250;2023-05-01T03:30:13;101418.38;;;11.51;58.97
39773;BME280;25451;51.960;6.250;2023-05-01T03:32:39;101422.81;;;11.52;58.60
39773;BME280;25451;51.960;6.250;2023-05-01T03:35:04;101424.97;;;11.50;58.87
39773;BME280;25451;51.960;6.250;2023-05-01T03:37:30;101424.16;;;11.50;58.59
39773;BME280;25451;51.960;6.250;2023-05-01T03:39:55;101414.75;;;11.51;58.70
39773;BME280;25451;51.960;6.250;2023-05-01T03:42:20;101407.16;;;11.46;58.77
39773;BME280;25451;51.960;6.250;2023-05-01T03:44:46;101415.59;;;11.51;58.71
39773;BME280;25451;51.960;6.250;2023-05-01T03:47:11;101418.13;;;11.53;58.70
39773;BME280;25451;51.960;6.250;2023-05-01T03:49:37;101415.34;;;11.53;58.83
39773;BME280;25451;51.960;6.250;2023-05-01T03:52:02;101402.13;;;11.43;58.84
39773;BME280;25451;51.960;6.250;2023-05-01T03:54:28;101414.50;;;11.52;58.62
39773;BME280;25451;51.960;6.250;2023-05-01T03:56:53;101408.97;;;11.52;58.63
39773;BME280;25451;51.960;6.250;2023-05-01T03:59:18;101408.97;;;11.52;58.68
39773;BME280;25451;51.960;6.250;2023-05-01T04:01:43;101408.97;;;11.52;58.85
39773;BME280;25451;51.960;6.250;2023-05-01T04:04:09;101407.91;;;11.53;58.70
39773;BME280;25451;51.960;6.250;2023-05-01T04:06:34;101399.63;;;11.53;58.96
39773;BME280;25451;51.960;6.250;2023-05-01T04:09:01;101399.63;;;11.53;58.91
39773;BME280;25451;51.960;6.250;2023-05-01T04:11:26;101397.91;;;11.52;58.78
39773;BME280;25451;51.960;6.250;2023-05-01T04:13:51;101402.63;;;11.52;58.67
39773;BME280;25451;51.960;6.250;2023-05-01T04:16:16;101400.69;;;11.52;58.91
39773;BME280;25451;51.960;6.250;2023-05-01T04:18:42;101399.00;;;11.51;58.64
39773;BME280;25451;51.960;6.250;2023-05-01T04:21:07;101397.56;;;11.49;58.93
39773;BME280;25451;51.960;6.250;2023-05-01T04:23:32;101393.94;;;11.48;58.78
39773;BME280;25451;51.960;6.250;2023-05-01T04:25:58;101400.69;;;11.52;58.82
39773;BME280;25451;51.960;6.250;2023-05-01T04:28:23;101402.03;;;11.50;58.80
39773;BME280;25451;51.960;6.250;2023-05-01T04:30:48;101404.53;;;11.51;58.82
39773;BME280;25451;51.960;6.250;2023-05-01T04:33:13;101393.94;;;11.48;58.88
39773;BME280;25451;51.960;6.250;2023-05-01T04:35:39;101385.44;;;11.50;58.90
39773;BME280;25451;51.960;6.250;2023-05-01T04:38:06;101390.56;;;11.46;58.81
39773;BME280;25451;51.960;6.250;2023-05-01T04:40:31;101389.28;;;11.49;58.85
39773;BME280;25451;51.960;6.250;2023-05-01T04:42:56;101392.28;;;11.47;58.93
39773;BME280;25451;51.960;6.250;2023-05-01T04:45:22;101389.28;;;11.49;59.02
39773;BME280;25451;51.960;6.250;2023-05-01T04:47:47;101386.75;;;11.47;58.77
39773;BME280;25451;51.960;6.250;2023-05-01T04:50:12;101389.97;;;11.44;58.88
39773;BME280;25451;51.960;6.250;2023-05-01T04:52:38;101385.53;;;11.43;59.08
39773;BME280;25451;51.960;6.250;2023-05-01T04:55:04;101363.78;;;11.35;58.92
39773;BME280;25451;51.960;6.250;2023-05-01T04:57:29;101388.06;;;11.45;59.25
39773;BME280;25451;51.960;6.250;2023-05-01T04:59:54;101386.38;;;11.44;58.94
39773;BME280;25451;51.960;6.250;2023-05-01T05:02:20;101393.34;;;11.46;59.17
39773;BME280;25451;51.960;6.250;2023-05-01T05:04:45;101395.50;;;11.44;58.74
39773;BME280;25451;51.960;6.250;2023-05-01T05:07:11;101387.22;;;11.44;59.17
39773;BME280;25451;51.960;6.250;2023-05-01T05:09:36;101397.19;;;11.45;59.15
39773;BME280;25451;51.960;6.250;2023-05-01T05:12:02;101388.06;;;11.45;59.11
39773;BME280;25451;51.960;6.250;2023-05-01T05:14:28;101385.03;;;11.46;59.11
39773;BME280;25451;51.960;6.250;2023-05-01T05:16:54;101379.53;;;11.46;59.11
39773;BME280;25451;51.960;6.250;2023-05-01T05:19:19;101388.41;;;11.48;58.92
39773;BME280;25451;51.960;6.250;2023-05-01T05:21:44;101370.75;;;11.38;59.10
39773;BME280;25451;51.960;6.250;2023-05-01T05:24:10;101383.75;;;11.49;59.18
39773;BME280;25451;51.960;6.250;2023-05-01T05:26:35;101358.50;;;11.34;59.11
39773;BME280;25451;51.960;6.250;2023-05-01T05:29:00;101384.09;;;11.52;58.95
39773;BME280;25451;51.960;6.250;2023-05-01T05:31:26;101387.47;;;11.54;59.19
39773;BME280;25451;51.960;6.250;2023-05-01T05:33:51;101382.53;;;11.56;58.89
39773;BME280;25451;51.960;6.250;2023-05-01T05:36:17;101384.84;;;11.59;58.81
39773;BME280;25451;51.960;6.250;2023-05-01T05:38:42;101383.28;;;11.63;58.93
39773;BME280;25451;51.960;6.250;2023-05-01T05:41:07;101390.06;;;11.68;58.85
39773;BME280;25451;51.960;6.250;2023-05-01T05:43:33;101385.75;;;11.72;58.71
39773;BME280;25451;51.960;6.250;2023-05-01T05:45:58;101384.19;;;11.76;58.31
39773;BME280;25451;51.960;6.250;2023-05-01T05:48:24;101383.72;;;11.79;58.72
39773;BME280;25451;51.960;6.250;2023-05-01T05:50:50;101366.53;;;11.77;58.70
39773;BME280;25451;51.960;6.250;2023-05-01T05:53:17;101378.03;;;11.85;58.47
39773;BME280;25451;51.960;6.250;2023-05-01T05:55:42;101380.09;;;11.90;58.25
39773;BME280;25451;51.960;6.250;2023-05-01T05:58:09;101370.94;;;11.89;58.42
39773;BME280;25451;51.960;6.250;2023-05-01T06:00:35;101356.53;;;11.87;58.44
39773;BME280;25451;51.960;6.250;2023-05-01T06:03:00;101373.13;;;11.99;58.52
39773;BME280;25451;51.960;6.250;2023-05-01T06:05:26;101361.81;;;12.00;58.46
39773;BME280;25451;51.960;6.250;2023-05-01T06:07:52;101366.25;;;12.01;58.26
39773;BME280;25451;51.960;6.250;2023-05-01T06:10:17;101369.16;;;12.06;58.45
39773;BME280;25451;51.960;6.250;2023-05-01T06:12:42;101367.84;;;12.09;58.44
39773;BME280;25451;51.960;6.250;2023-05-01T06:15:08;101360.59;;;12.08;58.19
39773;BME280;25451;51.960;6.250;2023-05-01T06:17:33;101372.06;;;12.11;58.31
39773;BME280;25451;51.960;6.250;2023-05-01T06:20:00;101361.00;;;12.11;58.02
39773;BME280;25451;51.960;6.250;2023-05-01T06:22:26;101371.44;;;12.21;58.30
39773;BME280;25451;51.960;6.250;2023-05-01T06:24:51;101372.03;;;12.23;58.07
39773;BME280;25451;51.960;6.250;2023-05-01T06:27:16;101372.13;;;12.28;58.00
39773;BME280;25451;51.960;6.250;2023-05-01T06:29:41;101375.28;;;12.31;58.17
39773;BME280;25451;51.960;6.250;2023-05-01T06:32:07;101376.69;;;12.34;58.05
39773;BME280;25451;51.960;6.250;2023-05-01T06:34:32;101368.91;;;12.31;57.90
39773;BME280;25451;51.960;6.250;2023-05-01T06:36:57;101371.28;;;12.39;57.66
39773;BME280;25451;51.960;6.250;2023-05-01T06:39:23;101375.84;;;12.45;57.59
39773;BME280;25451;51.960;6.250;2023-05-01T06:41:48;101380.91;;;12.48;57.52
39773;BME280;25451;51.960;6.250;2023-05-01T06:44:14;101381.63;;;12.55;57.87
39773;BME280;25451;51.960;6.250;2023-05-01T06:46:39;101380.88;;;12.60;57.57
39773;BME280;25451;51.960;6.250;2023-05-01T06:49:04;101381.22;;;12.63;57.81
39773;BME280;25451;51.960;6.250;2023-05-01T06:51:30;101380.75;;;12.66;57.43
39773;BME280;25451;51.960;6.250;2023-05-01T06:53:56;101376.41;;;12.70;57.68
39773;BME280;25451;51.960;6.250;2023-05-01T06:56:21;101373.72;;;12.75;57.81
39773;BME280;25451;51.960;6.250;2023-05-01T06:58:47;101364.81;;;12.73;57.37
39773;BME280;25451;51.960;6.250;2023-05-01T07:01:12;101374.78;;;12.86;57.61
39773;BME280;25451;51.960;6.250;2023-05-01T07:03:38;101367.66;;;12.90;57.38
39773;BME280;25451;51.960;6.250;2023-05-01T07:06:03;101367.53;;;12.96;57.17
39773;BME280;25451;51.960;6.250;2023-05-01T07:08:30;101372.69;;;13.04;56.99
39773;BME280;25451;51.960;6.250;2023-05-01T07:10:55;101350.53;;;13.04;56.88
39773;BME280;25451;51.960;6.250;2023-05-01T07:13:20;101372.16;;;13.19;57.12
39773;BME280;25451;51.960;6.250;2023-05-01T07:15:46;101375.94;;;13.29;56.76
39773;BME280;25451;51.960;6.250;2023-05-01T07:18:11;101364.69;;;13.36;56.65
39773;BME280;25451;51.960;6.250;2023-05-01T07:20:37;101370.09;;;13.43;56.60
39773;BME280;25451;51.960;6.250;2023-05-01T07:23:02;101371.84;;;13.49;56.84
39773;BME280;25451;51.960;6.250;2023-05-01T07:25:29;101369.25;;;13.59;56.49
39773;BME280;25451;51.960;6.250;2023-05-01T07:27:54;101361.38;;;13.67;56.65
39773;BME280;25451;51.960;6.250;2023-05-01T07:30:20;101370.44;;;13.79;56.51
39773;BME280;25451;51.960;6.250;2023-05-01T07:32:45;101370.34;;;13.91;56.35
39773;BME280;25451;51.960;6.250;2023-05-01T07:35:10;101373.63;;;14.04;56.56
39773;BME280;25451;51.960;6.250;2023-05-01T07:37:36;101357.13;;;14.14;56.42
39773;BME280;25451;51.960;6.250;2023-05-01T07:40:01;101364.66;;;14.36;56.15
39773;BME280;25451;51.960;6.250;2023-05-01T07:42:26;101371.50;;;14.50;56.18
39773;BME280;25451;51.960;6.250;2023-05-01T07:44:52;101375.63;;;14.64;55.84
39773;BME280;25451;51.960;6.250;2023-05-01T07:47:17;101350.41;;;14.70;55.75
39773;BME280;25451;51.960;6.250;2023-05-01T07:49:42;101339.75;;;14.84;55.74
39773;BME280;25451;51.960;6.250;2023-05-01T07:52:08;101369.44;;;15.05;55.58
39773;BME280;25451;51.960;6.250;2023-05-01T07:54:33;101352.03;;;15.15;55.65
39773;BME280;25451;51.960;6.250;2023-05-01T07:56:59;101352.19;;;15.30;55.53
39773;BME280;25451;51.960;6.250;2023-05-01T07:59:26;101357.09;;;15.44;55.55
39773;BME280;25451;51.960;6.250;2023-05-01T08:01:51;101354.69;;;15.53;55.47
39773;BME280;25451;51.960;6.250;2023-05-01T08:04:16;101357.84;;;15.66;55.39
39773;BME280;25451;51.960;6.250;2023-05-01T08:06:42;101349.28;;;15.73;55.33
39773;BME280;25451;51.960;6.250;2023-05-01T08:09:08;101354.94;;;15.88;55.21
39773;BME280;25451;51.960;6.250;2023-05-01T08:11:33;101363.13;;;16.00;55.10
39773;BME280;25451;51.960;6.250;2023-05-01T08:13:59;101354.00;;;16.09;54.99
39773;BME280;25451;51.960;6.250;2023-05-01T08:16:25;101360.47;;;16.20;55.07
39773;BME280;25451;51.960;6.250;2023-05-01T08:18:50;101358.03;;;16.28;55.10
39773;BME280;25451;51.960;6.250;2023-05-01T08:21:16;101354.72;;;16.36;55.17
39773;BME280;25451;51.960;6.250;2023-05-01T08:23:41;101357.28;;;16.43;55.04
39773;BME280;25451;51.960;6.250;2023-05-01T08:26:06;101361.53;;;16.50;55.15
39773;BME280;25451;51.960;6.250;2023-05-01T08:28:34;101357.09;;;16.54;55.28
39773;BME280;25451;51.960;6.250;2023-05-01T08:30:59;101363.78;;;16.58;55.29
39773;BME280;25451;51.960;6.250;2023-05-01T08:33:24;101352.94;;;16.62;55.20
39773;BME280;25451;51.960;6.250;2023-05-01T08:35:51;101358.78;;;16.66;55.13
39773;BME280;25451;51.960;6.250;2023-05-01T08:38:16;101359.94;;;16.70;55.25
39773;BME280;25451;51.960;6.250;2023-05-01T08:40:46;101349.91;;;16.74;55.26
39773;BME280;25451;51.960;6.250;2023-05-01T08:43:15;101358.88;;;16.81;55.17
39773;BME280;25451;51.960;6.250;2023-05-01T08:45:41;101351.63;;;16.85;55.23
39773;BME280;25451;51.960;6.250;2023-05-01T08:48:07;101344.97;;;16.91;55.07
39773;BME280;25451;51.960;6.250;2023-05-01T08:50:35;101350.28;;;16.97;55.11
39773;BME280;25451;51.960;6.250;2023-05-01T08:53:01;101353.94;;;17.03;54.94
39773;BME280;25451;51.960;6.250;2023-05-01T08:55:29;101353.97;;;17.08;54.72
39773;BME280;25451;51.960;6.250;2023-05-01T08:57:56;101355.34;;;17.15;54.78
39773;BME280;25451;51.960;6.250;2023-05-01T09:00:23;101342.25;;;17.16;54.69
39773;BME280;25451;51.960;6.250;2023-05-01T09:02:49;101356.53;;;17.34;54.64
39773;BME280;25451;51.960;6.250;2023-05-01T09:05:19;101353.75;;;17.45;54.47
39773;BME280;25451;51.960;6.250;2023-05-01T09:07:45;101349.56;;;17.57;54.25
39773;BME280;25451;51.960;6.250;2023-05-01T09:10:15;101352.13;;;17.69;54.18
39773;BME280;25451;51.960;6.250;2023-05-01T09:12:44;101359.91;;;17.82;53.76
39773;BME280;25451;51.960;6.250;2023-05-01T09:15:11;101346.78;;;17.92;53.51
39773;BME280;25451;51.960;6.250;2023-05-01T09:17:37;101348.19;;;18.10;53.23
39773;BME280;25451;51.960;6.250;2023-05-01T09:20:03;101347.59;;;18.23;53.14
39773;BME280;25451;51.960;6.250;2023-05-01T09:22:33;101342.81;;;18.34;52.67
39773;BME280;25451;51.960;6.250;2023-05-01T09:24:58;101344.47;;;18.50;52.71
39773;BME280;25451;51.960;6.250;2023-05-01T09:27:25;101345.53;;;18.64;52.65
39773;BME280;25451;51.960;6.250;2023-05-01T09:29:51;101342.41;;;18.80;52.68
39773;BME280;25451;51.960;6.250;2023-05-01T09:32:24;101345.41;;;18.94;52.56
39773;BME280;25451;51.960;6.250;2023-05-01T09:34:51;101338.66;;;19.00;52.15
39773;BME280;25451;51.960;6.250;2023-05-01T09:37:28;101345.31;;;19.09;52.06
39773;BME280;25451;51.960;6.250;2023-05-01T09:42:29;101334.84;;;19.30;51.73
39773;BME280;25451;51.960;6.250;2023-05-01T09:44:56;101347.41;;;19.42;51.63
39773;BME280;25451;51.960;6.250;2023-05-01T09:47:21;101336.66;;;19.54;51.27
39773;BME280;25451;51.960;6.250;2023-05-01T09:49:47;101336.81;;;19.68;51.18
39773;BME280;25451;51.960;6.250;2023-05-01T09:52:13;101333.06;;;19.82;51.19
39773;BME280;25451;51.960;6.250;2023-05-01T09:54:39;101333.44;;;20.00;50.85
39773;BME280;25451;51.960;6.250;2023-05-01T09:57:05;101326.06;;;20.09;50.52
39773;BME280;25451;51.960;6.250;2023-05-01T09:59:31;101319.59;;;20.13;50.29
39773;BME280;25451;51.960;6.250;2023-05-01T10:01:58;101329.47;;;20.34;50.05
39773;BME280;25451;51.960;6.250;2023-05-01T10:04:31;101327.09;;;20.46;49.88
39773;BME280;25451;51.960;6.250;2023-05-01T10:06:56;101343.50;;;20.58;49.75
39773;BME280;25451;51.960;6.250;2023-05-01T10:09:28;101334.44;;;20.66;49.50
39773;BME280;25451;51.960;6.250;2023-05-01T10:11:55;101343.31;;;20.73;49.35
39773;BME280;25451;51.960;6.250;2023-05-01T10:14:21;101320.06;;;20.73;49.29
39773;BME280;25451;51.960;6.250;2023-05-01T10:16:52;101331.59;;;20.90;48.88
39773;BME280;25451;51.960;6.250;2023-05-01T10:19:17;101331.22;;;20.96;48.77
39773;BME280;25451;51.960;6.250;2023-05-01T10:21:43;101333.72;;;21.03;48.46
39773;BME280;25451;51.960;6.250;2023-05-01T10:24:08;101328.84;;;21.08;48.52
39773;BME280;25451;51.960;6.250;2023-05-01T10:26:35;101332.66;;;21.17;48.68
39773;BME280;25451;51.960;6.250;2023-05-01T10:29:02;101334.16;;;21.28;48.48
39773;BME280;25451;51.960;6.250;2023-05-01T10:31:28;101308.88;;;21.28;48.73
39773;BME280;25451;51.960;6.250;2023-05-01T10:33:57;101320.63;;;21.49;48.72
39773;BME280;25451;51.960;6.250;2023-05-01T10:36:25;101307.44;;;21.50;48.58
39773;BME280;25451;51.960;6.250;2023-05-01T10:38:53;101314.53;;;21.61;48.60
39773;BME280;25451;51.960;6.250;2023-05-01T10:44:23;101318.16;;;21.80;47.97
39773;BME280;25451;51.960;6.250;2023-05-01T10:46:48;101321.53;;;21.82;47.81
39773;BME280;25451;51.960;6.250;2023-05-01T10:49:14;101323.19;;;21.83;47.35
39773;BME280;25451;51.960;6.250;2023-05-01T10:51:57;101319.56;;;21.82;47.27
39773;BME280;25451;51.960;6.250;2023-05-01T10:54:27;101317.28;;;21.84;47.34
39773;BME280;25451;51.960;6.250;2023-05-01T10:56:54;101316.13;;;21.85;47.14
39773;BME280;25451;51.960;6.250;2023-05-01T10:59:20;101319.97;;;21.89;47.05
39773;BME280;25451;51.960;6.250;2023-05-01T11:01:46;101306.25;;;21.88;47.09
39773;BME280;25451;51.960;6.250;2023-05-01T11:12:51;101312.22;;;22.00;46.62
39773;BME280;25451;51.960;6.250;2023-05-01T11:15:30;101304.50;;;22.05;46.55
39773;BME280;25451;51.960;6.250;2023-05-01T11:17:57;101301.94;;;22.09;46.45
39773;BME280;25451;51.960;6.250;2023-05-01T11:22:50;101306.84;;;22.17;46.36
39773;BME280;25451;51.960;6.250;2023-05-01T11:25:21;101305.06;;;22.21;45.91
39773;BME280;25451;51.960;6.250;2023-05-01T11:27:48;101301.00;;;22.27;45.89
39773;BME280;25451;51.960;6.250;2023-05-01T11:30:14;101300.78;;;22.23;45.69
39773;BME280;25451;51.960;6.250;2023-05-01T11:32:43;101304.22;;;22.34;45.55
39773;BME280;25451;51.960;6.250;2023-05-01T11:35:23;101303.63;;;22.37;45.48
39773;BME280;25451;51.960;6.250;2023-05-01T11:37:52;101296.84;;;22.38;45.47
39773;BME280;25451;51.960;6.250;2023-05-01T11:40:24;101307.28;;;22.51;45.47
39773;BME280;25451;51.960;6.250;2023-05-01T11:42:58;101295.00;;;22.61;45.73
39773;BME280;25451;51.960;6.250;2023-05-01T11:45:24;101298.34;;;22.76;45.76
39773;BME280;25451;51.960;6.250;2023-05-01T11:47:49;101296.44;;;22.85;45.17
39773;BME280;25451;51.960;6.250;2023-05-01T11:50:15;101291.72;;;22.94;44.97
39773;BME280;25451;51.960;6.250;2023-05-01T11:52:43;101296.91;;;23.01;44.40
39773;BME280;25451;51.960;6.250;2023-05-01T11:55:08;101294.00;;;23.06;44.75
39773;BME280;25451;51.960;6.250;2023-05-01T11:57:51;101289.91;;;23.12;44.40
39773;BME280;25451;51.960;6.250;2023-05-01T12:00:27;101289.47;;;23.19;44.23
39773;BME280;25451;51.960;6.250;2023-05-01T12:03:06;101272.81;;;23.08;44.22
39773;BME280;25451;51.960;6.250;2023-05-01T12:05:33;101288.03;;;23.21;43.69
39773;BME280;25451;51.960;6.250;2023-05-01T12:08:20;101285.94;;;23.13;43.98
39773;BME280;25451;51.960;6.250;2023-05-01T12:10:48;101277.81;;;23.12;43.83
39773;BME280;25451;51.960;6.250;2023-05-01T12:13:15;101283.75;;;23.10;43.92
39773;BME280;25451;51.960;6.250;2023-05-01T12:15:45;101284.09;;;23.08;43.94
39773;BME280;25451;51.960;6.250;2023-05-01T12:18:12;101288.03;;;23.07;43.47
39773;BME280;25451;51.960;6.250;2023-05-01T12:20:43;101283.25;;;23.08;43.58
39773;BME280;25451;51.960;6.250;2023-05-01T12:23:11;101285.53;;;23.06;43.64
39773;BME280;25451;51.960;6.250;2023-05-01T12:25:37;101282.53;;;23.02;43.26
39773;BME280;25451;51.960;6.250;2023-05-01T12:28:13;101284.00;;;23.00;43.19
39773;BME280;25451;51.960;6.250;2023-05-01T12:30:40;101293.91;;;22.97;43.01
39773;BME280;25451;51.960;6.250;2023-05-01T12:33:11;101290.91;;;22.94;42.63
39773;BME280;25451;51.960;6.250;2023-05-01T12:35:37;101282.97;;;22.96;42.72
39773;BME280;25451;51.960;6.250;2023-05-01T12:38:10;101272.72;;;23.00;42.79
39773;BME280;25451;51.960;6.250;2023-05-01T12:40:37;101269.72;;;22.96;42.72
39773;BME280;25451;51.960;6.250;2023-05-01T12:43:03;101280.75;;;23.06;42.60
39773;BME280;25451;51.960;6.250;2023-05-01T12:45:28;101279.41;;;23.04;42.60
39773;BME280;25451;51.960;6.250;2023-05-01T12:47:53;101284.00;;;23.00;42.36
39773;BME280;25451;51.960;6.250;2023-05-01T12:50:19;101279.97;;;22.92;42.41
39773;BME280;25451;51.960;6.250;2023-05-01T12:52:45;101276.72;;;22.85;42.28
39773;BME280;25451;51.960;6.250;2023-05-01T12:55:10;101284.66;;;22.83;42.54
39773;BME280;25451;51.960;6.250;2023-05-01T12:57:50;101287.06;;;22.76;42.52
39773;BME280;25451;51.960;6.250;2023-05-01T13:00:15;101277.69;;;22.67;42.50
39773;BME280;25451;51.960;6.250;2023-05-01T13:02:41;101289.13;;;22.57;42.38
39773;BME280;25451;51.960;6.250;2023-05-01T13:05:09;101281.22;;;22.46;42.72
39773;BME280;25451;51.960;6.250;2023-05-01T13:07:35;101277.25;;;22.33;43.04
39773;BME280;25451;51.960;6.250;2023-05-01T13:10:02;101292.06;;;22.25;43.06
39773;BME280;25451;51.960;6.250;2023-05-01T13:12:28;101290.47;;;22.19;43.06
39773;BME280;25451;51.960;6.250;2023-05-01T13:17:23;101281.50;;;22.03;43.21
39773;BME280;25451;51.960;6.250;2023-05-01T13:19:57;101287.81;;;21.95;43.08
39773;BME280;25451;51.960;6.250;2023-05-01T13:22:37;101265.25;;;21.68;43.11
39773;BME280;25451;51.960;6.250;2023-05-01T13:25:04;101284.81;;;21.73;43.38
39773;BME280;25451;51.960;6.250;2023-05-01T13:27:39;101289.50;;;21.64;43.30